الصفحة الرئيسية
METAR-TAF:

METAR-TAF

مطار :

Page, أريزونا, الولايات المتحدة

دائرة عرض: 36-55-14N, خط طول: 111-26-53W, ارتفاع: 1314 متر

مراقبة الطقس الحالي

تاريخ ووقت الإصدار 50 دقيقة قبل الساعة 09:53UTC
رياح هادئة
درجة الحرارة 13°درجة مئوية
الرطوبة 18%
ضغط 1026 hPa
الرؤية: 16.1 كم
سماء صافية

METAR: KPGA 290953Z AUTO 00000KT 10SM CLR 13/M11 A3030 RMK AO2 SLP215 T01331111 TSNO

زمن: 03:43 (10:43 UTC)

توقعات

تاريخ ووقت الإصدار 5ساعات و 23 دقيقة قبل الساعة 05:20UTC
التوقعات صالحة من29 الساعة 06 UTC إلى 30 الساعة 06 UTC
ريح 5 عقدةمن اتجاهات متغيرة
الرؤية: 10 كم
سماء صافية

TAF: KPGA 290520Z 2906/3006 VRB05KT P6SM SKC

أرصاد الطقس والتوقعات من أكثر من 4000 مطار (تقارير الطقس للمطار METAR والتنبؤ بالطقس بالمطارTAF).

المحطات المتاحة هي النقط الصفراء والحمراء على الخريطة.

حرك المؤشر فوق النقطة لمعرفة اسم المحطة.

ثم انقر لمعرفة أرصاد وتوقعات الطقس.

لتغيير الخارطة: اضغط على الأزرار الخضراء مع رمز الصليب الأسود للتكبير. على الزر الأخضر مع شرطة للتصغير، أو على الأسهم الخضراء للخرائط المجاورة.


METAR-TAF: